sensor_id;sensor_type;location;lat;lon;timestamp;temperature;humidity
48162;DHT22;33950;48.154;16.316;2023-05-19T00:01:32;12.30;99.90
48162;DHT22;33950;48.154;16.316;2023-05-19T00:04:18;12.20;99.90
48162;DHT22;33950;48.154;16.316;2023-05-19T00:07:08;12.20;99.90
48162;DHT22;33950;48.154;16.316;2023-05-19T00:09:55;12.20;99.90
48162;DHT22;33950;48.154;16.316;2023-05-19T00:12:42;12.20;99.90
48162;DHT22;33950;48.154;16.316;2023-05-19T00:15:29;12.20;99.90
48162;DHT22;33950;48.154;16.316;2023-05-19T00:18:16;12.20;99.90
48162;DHT22;33950;48.154;16.316;2023-05-19T00:21:02;12.10;99.90
48162;DHT22;33950;48.154;16.316;2023-05-19T00:23:49;12.20;99.90
48162;DHT22;33950;48.154;16.316;2023-05-19T00:26:36;12.20;99.90
48162;DHT22;33950;48.154;16.316;2023-05-19T00:29:22;12.20;99.90
48162;DHT22;33950;48.154;16.316;2023-05-19T00:32:08;12.20;99.90
48162;DHT22;33950;48.154;16.316;2023-05-19T00:34:54;12.20;99.90
48162;DHT22;33950;48.154;16.316;2023-05-19T00:37:41;12.30;99.90
48162;DHT22;33950;48.154;16.316;2023-05-19T00:40:29;12.30;99.90
48162;DHT22;33950;48.154;16.316;2023-05-19T00:43:16;12.30;99.90
48162;DHT22;33950;48.154;16.316;2023-05-19T00:46:02;12.30;99.90
48162;DHT22;33950;48.154;16.316;2023-05-19T00:48:48;12.30;99.90
48162;DHT22;33950;48.154;16.316;2023-05-19T00:51:35;12.30;99.90
48162;DHT22;33950;48.154;16.316;2023-05-19T00:54:22;12.30;99.90
48162;DHT22;33950;48.154;16.316;2023-05-19T00:57:09;12.30;99.90
48162;DHT22;33950;48.154;16.316;2023-05-19T00:59:56;12.20;99.90
48162;DHT22;33950;48.154;16.316;2023-05-19T01:02:42;12.20;99.90
48162;DHT22;33950;48.154;16.316;2023-05-19T01:05:28;12.20;99.90
48162;DHT22;33950;48.154;16.316;2023-05-19T01:08:14;12.10;99.90
48162;DHT22;33950;48.154;16.316;2023-05-19T01:11:01;12.20;99.90
48162;DHT22;33950;48.154;16.316;2023-05-19T01:13:48;12.20;99.90
48162;DHT22;33950;48.154;16.316;2023-05-19T01:16:39;12.20;99.90
48162;DHT22;33950;48.154;16.316;2023-05-19T01:19:49;12.20;99.90
48162;DHT22;33950;48.154;16.316;2023-05-19T01:23:11;12.20;99.90
48162;DHT22;33950;48.154;16.316;2023-05-19T01:26:24;12.20;99.90
48162;DHT22;33950;48.154;16.316;2023-05-19T01:29:40;12.10;99.90
48162;DHT22;33950;48.154;16.316;2023-05-19T01:32:28;12.00;99.90
48162;DHT22;33950;48.154;16.316;2023-05-19T01:35:16;12.00;99.90
48162;DHT22;33950;48.154;16.316;2023-05-19T01:38:03;12.00;99.90
48162;DHT22;33950;48.154;16.316;2023-05-19T01:40:50;12.00;99.90
48162;DHT22;33950;48.154;16.316;2023-05-19T01:43:37;12.10;99.90
48162;DHT22;33950;48.154;16.316;2023-05-19T01:46:24;12.00;99.90
48162;DHT22;33950;48.154;16.316;2023-05-19T01:49:12;12.00;99.90
48162;DHT22;33950;48.154;16.316;2023-05-19T01:51:58;11.90;99.90
48162;DHT22;33950;48.154;16.316;2023-05-19T01:54:44;11.80;99.90
48162;DHT22;33950;48.154;16.316;2023-05-19T01:57:37;11.70;99.90
48162;DHT22;33950;48.154;16.316;2023-05-19T02:00:32;11.70;99.90
48162;DHT22;33950;48.154;16.316;2023-05-19T02:03:32;11.70;99.90
48162;DHT22;33950;48.154;16.316;2023-05-19T02:06:29;11.70;99.90
48162;DHT22;33950;48.154;16.316;2023-05-19T02:09:23;11.70;99.90
48162;DHT22;33950;48.154;16.316;2023-05-19T02:12:14;11.70;99.90
48162;DHT22;33950;48.154;16.316;2023-05-19T02:15:05;11.70;99.90
48162;DHT22;33950;48.154;16.316;2023-05-19T02:17:52;11.60;99.90
48162;DHT22;33950;48.154;16.316;2023-05-19T02:20:40;11.50;99.90
48162;DHT22;33950;48.154;16.316;2023-05-19T02:23:29;11.50;99.90
48162;DHT22;33950;48.154;16.316;2023-05-19T02:26:15;11.50;99.90
48162;DHT22;33950;48.154;16.316;2023-05-19T02:29:01;11.50;99.90
48162;DHT22;33950;48.154;16.316;2023-05-19T02:31:47;11.50;99.90
48162;DHT22;33950;48.154;16.316;2023-05-19T02:34:33;11.50;99.90
48162;DHT22;33950;48.154;16.316;2023-05-19T02:37:20;11.50;99.90
48162;DHT22;33950;48.154;16.316;2023-05-19T02:40:10;11.50;99.90
48162;DHT22;33950;48.154;16.316;2023-05-19T02:42:56;11.50;99.90
48162;DHT22;33950;48.154;16.316;2023-05-19T02:45:42;11.50;99.90
48162;DHT22;33950;48.154;16.316;2023-05-19T02:48:28;11.50;99.90
48162;DHT22;33950;48.154;16.316;2023-05-19T02:51:14;11.40;99.90
48162;DHT22;33950;48.154;16.316;2023-05-19T02:54:00;11.50;99.90
48162;DHT22;33950;48.154;16.316;2023-05-19T02:56:48;11.40;99.90
48162;DHT22;33950;48.154;16.316;2023-05-19T02:59:34;11.40;99.90
48162;DHT22;33950;48.154;16.316;2023-05-19T03:02:20;11.50;99.90
48162;DHT22;33950;48.154;16.316;2023-05-19T03:05:07;11.40;99.90
48162;DHT22;33950;48.154;16.316;2023-05-19T03:07:55;11.40;99.90
48162;DHT22;33950;48.154;16.316;2023-05-19T03:10:41;11.30;99.90
48162;DHT22;33950;48.154;16.316;2023-05-19T03:13:28;11.30;99.90
48162;DHT22;33950;48.154;16.316;2023-05-19T03:16:14;11.30;99.90
48162;DHT22;33950;48.154;16.316;2023-05-19T03:19:00;11.30;99.90
48162;DHT22;33950;48.154;16.316;2023-05-19T03:21:46;11.20;99.90
48162;DHT22;33950;48.154;16.316;2023-05-19T03:24:33;11.30;99.90
48162;DHT22;33950;48.154;16.316;2023-05-19T03:27:19;11.30;99.90
48162;DHT22;33950;48.154;16.316;2023-05-19T03:30:08;11.30;99.90
48162;DHT22;33950;48.154;16.316;2023-05-19T03:32:54;11.40;99.90
48162;DHT22;33950;48.154;16.316;2023-05-19T03:35:41;11.40;99.90
48162;DHT22;33950;48.154;16.316;2023-05-19T03:38:27;11.30;99.90
48162;DHT22;33950;48.154;16.316;2023-05-19T03:41:13;11.30;99.90
48162;DHT22;33950;48.154;16.316;2023-05-19T03:43:59;11.30;99.90
48162;DHT22;33950;48.154;16.316;2023-05-19T03:46:46;11.40;99.90
48162;DHT22;33950;48.154;16.316;2023-05-19T03:49:32;11.30;99.90
48162;DHT22;33950;48.154;16.316;2023-05-19T03:52:18;11.30;99.90
48162;DHT22;33950;48.154;16.316;2023-05-19T03:55:06;11.20;99.90
48162;DHT22;33950;48.154;16.316;2023-05-19T03:57:52;11.20;99.90
48162;DHT22;33950;48.154;16.316;2023-05-19T04:00:38;11.20;99.90
48162;DHT22;33950;48.154;16.316;2023-05-19T04:03:26;11.20;99.90
48162;DHT22;33950;48.154;16.316;2023-05-19T04:06:13;11.10;99.90
48162;DHT22;33950;48.154;16.316;2023-05-19T04:09:00;11.20;99.90
48162;DHT22;33950;48.154;16.316;2023-05-19T04:11:46;11.20;99.90
48162;DHT22;33950;48.154;16.316;2023-05-19T04:14:33;11.30;99.90
48162;DHT22;33950;48.154;16.316;2023-05-19T04:17:19;11.30;99.90
48162;DHT22;33950;48.154;16.316;2023-05-19T04:20:07;11.30;99.90
48162;DHT22;33950;48.154;16.316;2023-05-19T04:22:53;11.30;99.90
48162;DHT22;33950;48.154;16.316;2023-05-19T04:25:39;11.30;99.90
48162;DHT22;33950;48.154;16.316;2023-05-19T04:28:26;11.40;99.90
48162;DHT22;33950;48.154;16.316;2023-05-19T04:31:12;11.40;99.90
48162;DHT22;33950;48.154;16.316;2023-05-19T04:33:59;11.40;99.90
48162;DHT22;33950;48.154;16.316;2023-05-19T04:36:47;11.40;99.90
48162;DHT22;33950;48.154;16.316;2023-05-19T04:39:34;11.40;99.90
48162;DHT22;33950;48.154;16.316;2023-05-19T04:42:23;11.30;99.90
48162;DHT22;33950;48.154;16.316;2023-05-19T04:45:11;11.30;99.90
48162;DHT22;33950;48.154;16.316;2023-05-19T04:47:59;11.40;99.90
48162;DHT22;33950;48.154;16.316;2023-05-19T04:50:46;11.40;99.90
48162;DHT22;33950;48.154;16.316;2023-05-19T04:53:35;11.30;99.90
48162;DHT22;33950;48.154;16.316;2023-05-19T04:56:21;11.20;99.90
48162;DHT22;33950;48.154;16.316;2023-05-19T04:59:08;11.30;99.90
48162;DHT22;33950;48.154;16.316;2023-05-19T05:01:54;11.30;99.90
48162;DHT22;33950;48.154;16.316;2023-05-19T05:04:41;11.20;99.90
48162;DHT22;33950;48.154;16.316;2023-05-19T05:07:28;11.20;99.90
48162;DHT22;33950;48.154;16.316;2023-05-19T05:10:16;11.20;99.90
48162;DHT22;33950;48.154;16.316;2023-05-19T05:13:02;11.30;99.90
48162;DHT22;33950;48.154;16.316;2023-05-19T05:15:49;11.30;99.90
48162;DHT22;33950;48.154;16.316;2023-05-19T05:18:37;11.30;99.90
48162;DHT22;33950;48.154;16.316;2023-05-19T05:21:24;11.50;99.90
48162;DHT22;33950;48.154;16.316;2023-05-19T05:24:11;11.50;99.90
48162;DHT22;33950;48.154;16.316;2023-05-19T05:26:59;11.60;99.90
48162;DHT22;33950;48.154;16.316;2023-05-19T05:29:46;11.70;99.90
48162;DHT22;33950;48.154;16.316;2023-05-19T05:32:32;11.80;99.90
48162;DHT22;33950;48.154;16.316;2023-05-19T05:35:18;11.90;99.90
48162;DHT22;33950;48.154;16.316;2023-05-19T05:38:07;12.10;99.90
48162;DHT22;33950;48.154;16.316;2023-05-19T05:40:53;12.20;99.90
48162;DHT22;33950;48.154;16.316;2023-05-19T05:43:40;12.10;99.90
48162;DHT22;33950;48.154;16.316;2023-05-19T05:46:26;12.00;99.90
48162;DHT22;33950;48.154;16.316;2023-05-19T05:49:13;12.00;99.90
48162;DHT22;33950;48.154;16.316;2023-05-19T05:51:59;12.00;99.90
48162;DHT22;33950;48.154;16.316;2023-05-19T05:54:46;12.10;99.90
48162;DHT22;33950;48.154;16.316;2023-05-19T05:57:32;12.20;99.90
48162;DHT22;33950;48.154;16.316;2023-05-19T06:00:22;12.20;99.90
48162;DHT22;33950;48.154;16.316;2023-05-19T06:03:09;12.30;99.90
48162;DHT22;33950;48.154;16.316;2023-05-19T06:05:56;12.30;99.90
48162;DHT22;33950;48.154;16.316;2023-05-19T06:08:42;12.40;99.90
48162;DHT22;33950;48.154;16.316;2023-05-19T06:11:28;12.50;99.90
48162;DHT22;33950;48.154;16.316;2023-05-19T06:14:14;12.50;99.90
48162;DHT22;33950;48.154;16.316;2023-05-19T06:17:02;12.60;99.90
48162;DHT22;33950;48.154;16.316;2023-05-19T06:19:48;12.60;99.90
48162;DHT22;33950;48.154;16.316;2023-05-19T06:22:34;12.60;99.90
48162;DHT22;33950;48.154;16.316;2023-05-19T06:25:20;12.70;99.90
48162;DHT22;33950;48.154;16.316;2023-05-19T06:28:06;12.70;99.90
48162;DHT22;33950;48.154;16.316;2023-05-19T06:30:55;12.70;99.90
48162;DHT22;33950;48.154;16.316;2023-05-19T06:33:42;12.70;99.90
48162;DHT22;33950;48.154;16.316;2023-05-19T06:36:28;12.80;99.90
48162;DHT22;33950;48.154;16.316;2023-05-19T06:39:14;12.80;99.90
48162;DHT22;33950;48.154;16.316;2023-05-19T06:42:00;13.00;99.90
48162;DHT22;33950;48.154;16.316;2023-05-19T06:44:47;13.10;99.90
48162;DHT22;33950;48.154;16.316;2023-05-19T06:47:33;13.10;99.70
48162;DHT22;33950;48.154;16.316;2023-05-19T06:50:21;13.20;99.20
48162;DHT22;33950;48.154;16.316;2023-05-19T06:53:07;13.20;99.40
48162;DHT22;33950;48.154;16.316;2023-05-19T06:55:53;13.10;99.40
48162;DHT22;33950;48.154;16.316;2023-05-19T06:58:39;13.20;99.40
48162;DHT22;33950;48.154;16.316;2023-05-19T07:01:25;13.30;99.30
48162;DHT22;33950;48.154;16.316;2023-05-19T07:04:12;13.20;99.20
48162;DHT22;33950;48.154;16.316;2023-05-19T07:07:00;13.10;99.20
48162;DHT22;33950;48.154;16.316;2023-05-19T07:09:46;13.00;99.40
48162;DHT22;33950;48.154;16.316;2023-05-19T07:12:32;13.00;99.60
48162;DHT22;33950;48.154;16.316;2023-05-19T07:15:18;13.10;99.70
48162;DHT22;33950;48.154;16.316;2023-05-19T07:18:04;13.30;99.60
48162;DHT22;33950;48.154;16.316;2023-05-19T07:20:51;13.40;99.60
48162;DHT22;33950;48.154;16.316;2023-05-19T07:23:38;13.50;99.60
48162;DHT22;33950;48.154;16.316;2023-05-19T07:26:24;13.70;99.20
48162;DHT22;33950;48.154;16.316;2023-05-19T07:29:11;13.80;99.50
48162;DHT22;33950;48.154;16.316;2023-05-19T07:31:57;13.90;99.20
48162;DHT22;33950;48.154;16.316;2023-05-19T07:34:43;14.00;99.50
48162;DHT22;33950;48.154;16.316;2023-05-19T07:37:29;14.10;99.50
48162;DHT22;33950;48.154;16.316;2023-05-19T07:40:17;14.00;99.00
48162;DHT22;33950;48.154;16.316;2023-05-19T07:43:03;13.90;98.50
48162;DHT22;33950;48.154;16.316;2023-05-19T07:45:49;13.90;98.90
48162;DHT22;33950;48.154;16.316;2023-05-19T07:48:36;14.10;99.10
48162;DHT22;33950;48.154;16.316;2023-05-19T07:51:22;14.30;98.90
48162;DHT22;33950;48.154;16.316;2023-05-19T07:54:08;14.40;98.90
48162;DHT22;33950;48.154;16.316;2023-05-19T07:56:58;14.50;98.90
48162;DHT22;33950;48.154;16.316;2023-05-19T07:59:44;14.50;98.60
48162;DHT22;33950;48.154;16.316;2023-05-19T08:02:30;14.50;99.10
48162;DHT22;33950;48.154;16.316;2023-05-19T08:05:16;14.70;99.00
48162;DHT22;33950;48.154;16.316;2023-05-19T08:08:03;14.80;99.00
48162;DHT22;33950;48.154;16.316;2023-05-19T08:10:49;14.90;99.10
48162;DHT22;33950;48.154;16.316;2023-05-19T08:13:37;15.00;98.10
48162;DHT22;33950;48.154;16.316;2023-05-19T08:16:23;14.60;98.20
48162;DHT22;33950;48.154;16.316;2023-05-19T08:19:09;14.60;98.60
48162;DHT22;33950;48.154;16.316;2023-05-19T08:21:55;14.70;98.90
48162;DHT22;33950;48.154;16.316;2023-05-19T08:24:42;15.00;98.60
48162;DHT22;33950;48.154;16.316;2023-05-19T08:27:29;15.20;98.60
48162;DHT22;33950;48.154;16.316;2023-05-19T08:30:17;15.30;98.60
48162;DHT22;33950;48.154;16.316;2023-05-19T08:33:03;15.20;98.30
48162;DHT22;33950;48.154;16.316;2023-05-19T08:35:49;15.20;98.40
48162;DHT22;33950;48.154;16.316;2023-05-19T08:38:35;15.30;98.30
48162;DHT22;33950;48.154;16.316;2023-05-19T08:41:21;15.40;98.60
48162;DHT22;33950;48.154;16.316;2023-05-19T08:44:08;15.40;97.60
48162;DHT22;33950;48.154;16.316;2023-05-19T08:46:57;15.40;98.20
48162;DHT22;33950;48.154;16.316;2023-05-19T08:49:47;15.50;98.10
48162;DHT22;33950;48.154;16.316;2023-05-19T08:52:50;15.60;98.20
48162;DHT22;33950;48.154;16.316;2023-05-19T08:55:43;15.60;98.00
48162;DHT22;33950;48.154;16.316;2023-05-19T08:58:32;15.80;97.90
48162;DHT22;33950;48.154;16.316;2023-05-19T09:01:19;15.80;97.80
48162;DHT22;33950;48.154;16.316;2023-05-19T09:04:08;16.00;97.90
48162;DHT22;33950;48.154;16.316;2023-05-19T09:06:55;16.00;97.50
48162;DHT22;33950;48.154;16.316;2023-05-19T09:09:41;15.80;97.50
48162;DHT22;33950;48.154;16.316;2023-05-19T09:12:28;16.00;98.00
48162;DHT22;33950;48.154;16.316;2023-05-19T09:15:16;16.20;98.40
48162;DHT22;33950;48.154;16.316;2023-05-19T09:18:06;16.40;98.10
48162;DHT22;33950;48.154;16.316;2023-05-19T09:20:57;16.50;97.80
48162;DHT22;33950;48.154;16.316;2023-05-19T09:23:46;16.80;98.30
48162;DHT22;33950;48.154;16.316;2023-05-19T09:26:35;16.90;97.20
48162;DHT22;33950;48.154;16.316;2023-05-19T09:29:22;17.00;97.30
48162;DHT22;33950;48.154;16.316;2023-05-19T09:32:08;17.00;96.80
48162;DHT22;33950;48.154;16.316;2023-05-19T09:34:54;17.10;96.60
48162;DHT22;33950;48.154;16.316;2023-05-19T09:37:43;16.90;96.20
48162;DHT22;33950;48.154;16.316;2023-05-19T09:40:29;16.90;96.90
48162;DHT22;33950;48.154;16.316;2023-05-19T09:43:17;17.00;97.00
48162;DHT22;33950;48.154;16.316;2023-05-19T09:46:04;17.10;96.70
48162;DHT22;33950;48.154;16.316;2023-05-19T09:48:56;17.20;96.80
48162;DHT22;33950;48.154;16.316;2023-05-19T09:51:42;17.50;96.90
48162;DHT22;33950;48.154;16.316;2023-05-19T09:54:30;17.60;96.60
48162;DHT22;33950;48.154;16.316;2023-05-19T09:57:24;17.60;96.40
48162;DHT22;33950;48.154;16.316;2023-05-19T10:00:12;17.60;96.00
48162;DHT22;33950;48.154;16.316;2023-05-19T10:03:04;17.70;96.40
48162;DHT22;33950;48.154;16.316;2023-05-19T10:05:52;17.70;95.80
48162;DHT22;33950;48.154;16.316;2023-05-19T10:08:48;17.70;96.10
48162;DHT22;33950;48.154;16.316;2023-05-19T10:11:36;17.70;96.70
48162;DHT22;33950;48.154;16.316;2023-05-19T10:14:27;17.80;96.30
48162;DHT22;33950;48.154;16.316;2023-05-19T10:17:13;17.80;96.10
48162;DHT22;33950;48.154;16.316;2023-05-19T10:19:59;17.80;96.00
48162;DHT22;33950;48.154;16.316;2023-05-19T10:22:48;17.90;96.20
48162;DHT22;33950;48.154;16.316;2023-05-19T10:25:35;17.90;96.20
48162;DHT22;33950;48.154;16.316;2023-05-19T10:28:25;17.70;96.10
48162;DHT22;33950;48.154;16.316;2023-05-19T10:31:17;17.70;96.60
48162;DHT22;33950;48.154;16.316;2023-05-19T10:34:20;18.00;96.60
48162;DHT22;33950;48.154;16.316;2023-05-19T10:37:15;18.30;96.00
48162;DHT22;33950;48.154;16.316;2023-05-19T10:40:06;18.80;96.00
48162;DHT22;33950;48.154;16.316;2023-05-19T10:43:13;19.40;96.00
48162;DHT22;33950;48.154;16.316;2023-05-19T10:46:01;20.00;95.60
48162;DHT22;33950;48.154;16.316;2023-05-19T10:48:49;20.00;94.90
48162;DHT22;33950;48.154;16.316;2023-05-19T10:57:28;19.30;95.20
48162;DHT22;33950;48.154;16.316;2023-05-19T11:00:26;19.30;95.60
48162;DHT22;33950;48.154;16.316;2023-05-19T11:03:15;20.10;94.70
48162;DHT22;33950;48.154;16.316;2023-05-19T11:06:19;20.00;94.00
48162;DHT22;33950;48.154;16.316;2023-05-19T11:09:12;19.70;94.30
48162;DHT22;33950;48.154;16.316;2023-05-19T11:12:02;19.50;94.80
48162;DHT22;33950;48.154;16.316;2023-05-19T11:14:51;20.00;94.50
48162;DHT22;33950;48.154;16.316;2023-05-19T11:17:39;21.90;95.30
48162;DHT22;33950;48.154;16.316;2023-05-19T11:20:28;21.40;93.20
48162;DHT22;33950;48.154;16.316;2023-05-19T11:23:16;21.70;93.60
48162;DHT22;33950;48.154;16.316;2023-05-19T11:26:03;21.30;92.90
48162;DHT22;33950;48.154;16.316;2023-05-19T11:28:51;20.80;93.00
48162;DHT22;33950;48.154;16.316;2023-05-19T11:31:40;20.60;93.40
48162;DHT22;33950;48.154;16.316;2023-05-19T11:34:27;20.20;93.80
48162;DHT22;33950;48.154;16.316;2023-05-19T11:37:16;20.00;94.10
48162;DHT22;33950;48.154;16.316;2023-05-19T11:40:03;20.10;94.20
48162;DHT22;33950;48.154;16.316;2023-05-19T11:42:53;20.60;94.00
48162;DHT22;33950;48.154;16.316;2023-05-19T11:45:39;21.40;93.80
48162;DHT22;33950;48.154;16.316;2023-05-19T11:48:25;22.00;93.40
48162;DHT22;33950;48.154;16.316;2023-05-19T11:51:12;22.40;92.50
48162;DHT22;33950;48.154;16.316;2023-05-19T11:53:59;22.30;91.20
48162;DHT22;33950;48.154;16.316;2023-05-19T11:56:47;22.30;91.40
48162;DHT22;33950;48.154;16.316;2023-05-19T11:59:35;22.30;92.10
48162;DHT22;33950;48.154;16.316;2023-05-19T12:02:26;22.70;91.50
48162;DHT22;33950;48.154;16.316;2023-05-19T12:05:18;22.70;91.40
48162;DHT22;33950;48.154;16.316;2023-05-19T12:08:04;23.10;91.20
48162;DHT22;33950;48.154;16.316;2023-05-19T12:10:52;23.30;91.10
48162;DHT22;33950;48.154;16.316;2023-05-19T12:13:39;23.30;91.00
48162;DHT22;33950;48.154;16.316;2023-05-19T12:16:32;23.10;90.60
48162;DHT22;33950;48.154;16.316;2023-05-19T12:19:21;22.40;91.10
48162;DHT22;33950;48.154;16.316;2023-05-19T12:22:08;22.30;91.40
48162;DHT22;33950;48.154;16.316;2023-05-19T12:24:55;22.60;91.90
48162;DHT22;33950;48.154;16.316;2023-05-19T12:27:43;23.00;92.00
48162;DHT22;33950;48.154;16.316;2023-05-19T12:30:30;23.40;90.90
48162;DHT22;33950;48.154;16.316;2023-05-19T12:33:16;23.30;91.00
48162;DHT22;33950;48.154;16.316;2023-05-19T12:36:04;23.30;90.70
48162;DHT22;33950;48.154;16.316;2023-05-19T12:38:53;23.40;90.90
48162;DHT22;33950;48.154;16.316;2023-05-19T12:41:40;23.70;90.80
48162;DHT22;33950;48.154;16.316;2023-05-19T12:44:30;23.80;90.40
48162;DHT22;33950;48.154;16.316;2023-05-19T12:47:21;23.70;89.30
48162;DHT22;33950;48.154;16.316;2023-05-19T12:50:08;23.30;90.00
48162;DHT22;33950;48.154;16.316;2023-05-19T12:52:55;22.70;90.10
48162;DHT22;33950;48.154;16.316;2023-05-19T12:55:42;23.40;89.50
48162;DHT22;33950;48.154;16.316;2023-05-19T12:58:32;23.40;90.20
48162;DHT22;33950;48.154;16.316;2023-05-19T13:01:21;23.70;89.50
48162;DHT22;33950;48.154;16.316;2023-05-19T13:04:07;23.80;90.00
48162;DHT22;33950;48.154;16.316;2023-05-19T13:06:53;23.90;89.50
48162;DHT22;33950;48.154;16.316;2023-05-19T13:09:40;24.00;89.80
48162;DHT22;33950;48.154;16.316;2023-05-19T13:12:27;24.10;88.50
48162;DHT22;33950;48.154;16.316;2023-05-19T13:15:13;24.10;88.10
48162;DHT22;33950;48.154;16.316;2023-05-19T13:18:02;24.30;87.80
48162;DHT22;33950;48.154;16.316;2023-05-19T13:20:49;24.20;87.30
48162;DHT22;33950;48.154;16.316;2023-05-19T13:23:36;24.20;87.60
48162;DHT22;33950;48.154;16.316;2023-05-19T13:26:22;24.00;87.60
48162;DHT22;33950;48.154;16.316;2023-05-19T13:29:08;23.80;86.70
48162;DHT22;33950;48.154;16.316;2023-05-19T13:31:56;23.90;86.50
48162;DHT22;33950;48.154;16.316;2023-05-19T13:34:44;23.90;87.00
48162;DHT22;33950;48.154;16.316;2023-05-19T13:37:30;24.10;85.30
48162;DHT22;33950;48.154;16.316;2023-05-19T13:40:19;24.20;86.80
48162;DHT22;33950;48.154;16.316;2023-05-19T13:43:06;24.40;87.30
48162;DHT22;33950;48.154;16.316;2023-05-19T13:45:53;24.20;85.80
48162;DHT22;33950;48.154;16.316;2023-05-19T13:48:39;24.10;86.80
48162;DHT22;33950;48.154;16.316;2023-05-19T13:51:26;24.10;87.20
48162;DHT22;33950;48.154;16.316;2023-05-19T13:54:12;24.10;88.50
48162;DHT22;33950;48.154;16.316;2023-05-19T13:56:58;24.30;87.30
48162;DHT22;33950;48.154;16.316;2023-05-19T13:59:45;24.40;88.00
48162;DHT22;33950;48.154;16.316;2023-05-19T14:02:32;24.40;87.70
48162;DHT22;33950;48.154;16.316;2023-05-19T14:05:21;24.40;87.60
48162;DHT22;33950;48.154;16.316;2023-05-19T14:08:08;24.50;88.20
48162;DHT22;33950;48.154;16.316;2023-05-19T14:10:56;24.60;88.40
48162;DHT22;33950;48.154;16.316;2023-05-19T14:13:42;24.30;87.10
48162;DHT22;33950;48.154;16.316;2023-05-19T14:16:30;24.10;86.60
48162;DHT22;33950;48.154;16.316;2023-05-19T14:19:16;24.00;87.00
48162;DHT22;33950;48.154;16.316;2023-05-19T14:22:09;23.90;87.50
48162;DHT22;33950;48.154;16.316;2023-05-19T14:24:57;23.70;87.60
48162;DHT22;33950;48.154;16.316;2023-05-19T14:27:43;23.50;87.80
48162;DHT22;33950;48.154;16.316;2023-05-19T14:30:29;23.50;87.80
48162;DHT22;33950;48.154;16.316;2023-05-19T14:33:16;23.50;87.30
48162;DHT22;33950;48.154;16.316;2023-05-19T14:36:02;23.50;88.10
48162;DHT22;33950;48.154;16.316;2023-05-19T14:38:50;23.70;88.10
48162;DHT22;33950;48.154;16.316;2023-05-19T14:41:37;23.80;88.50
48162;DHT22;33950;48.154;16.316;2023-05-19T14:44:23;23.80;87.30
48162;DHT22;33950;48.154;16.316;2023-05-19T14:47:09;23.70;87.70
48162;DHT22;33950;48.154;16.316;2023-05-19T14:49:57;23.50;88.20
48162;DHT22;33950;48.154;16.316;2023-05-19T14:52:43;23.60;88.10
48162;DHT22;33950;48.154;16.316;2023-05-19T14:55:29;23.70;87.00
48162;DHT22;33950;48.154;16.316;2023-05-19T14:58:16;23.70;87.40
48162;DHT22;33950;48.154;16.316;2023-05-19T15:01:03;23.80;87.50
48162;DHT22;33950;48.154;16.316;2023-05-19T15:03:49;23.70;88.40
48162;DHT22;33950;48.154;16.316;2023-05-19T15:06:35;23.70;87.70
48162;DHT22;33950;48.154;16.316;2023-05-19T15:09:21;23.60;87.20
48162;DHT22;33950;48.154;16.316;2023-05-19T15:12:07;23.40;87.70
48162;DHT22;33950;48.154;16.316;2023-05-19T15:14:54;23.20;88.80
48162;DHT22;33950;48.154;16.316;2023-05-19T15:17:41;23.20;88.60
48162;DHT22;33950;48.154;16.316;2023-05-19T15:20:29;23.30;89.10
48162;DHT22;33950;48.154;16.316;2023-05-19T15:23:17;23.30;89.00
48162;DHT22;33950;48.154;16.316;2023-05-19T15:26:04;23.30;88.80
48162;DHT22;33950;48.154;16.316;2023-05-19T15:28:51;23.20;89.30
48162;DHT22;33950;48.154;16.316;2023-05-19T15:31:38;23.00;90.10
48162;DHT22;33950;48.154;16.316;2023-05-19T15:34:24;22.90;89.40
48162;DHT22;33950;48.154;16.316;2023-05-19T15:37:10;22.80;89.80
48162;DHT22;33950;48.154;16.316;2023-05-19T15:39:56;22.60;89.80
48162;DHT22;33950;48.154;16.316;2023-05-19T15:42:42;22.50;89.80
48162;DHT22;33950;48.154;16.316;2023-05-19T15:45:29;22.30;89.90
48162;DHT22;33950;48.154;16.316;2023-05-19T15:48:16;22.20;90.40
48162;DHT22;33950;48.154;16.316;2023-05-19T15:51:03;22.10;90.30
48162;DHT22;33950;48.154;16.316;2023-05-19T15:53:49;22.10;90.50
48162;DHT22;33950;48.154;16.316;2023-05-19T15:56:35;22.20;90.40
48162;DHT22;33950;48.154;16.316;2023-05-19T15:59:21;22.00;90.50
48162;DHT22;33950;48.154;16.316;2023-05-19T16:02:09;21.80;90.50
48162;DHT22;33950;48.154;16.316;2023-05-19T16:04:57;21.70;91.00
48162;DHT22;33950;48.154;16.316;2023-05-19T16:07:43;21.70;90.70
48162;DHT22;33950;48.154;16.316;2023-05-19T16:10:29;21.60;90.90
48162;DHT22;33950;48.154;16.316;2023-05-19T16:13:15;21.50;91.00
48162;DHT22;33950;48.154;16.316;2023-05-19T16:16:02;21.50;91.10
48162;DHT22;33950;48.154;16.316;2023-05-19T16:18:49;21.50;91.10
48162;DHT22;33950;48.154;16.316;2023-05-19T16:21:37;21.50;91.20
48162;DHT22;33950;48.154;16.316;2023-05-19T16:28:23;21.50;91.30
48162;DHT22;33950;48.154;16.316;2023-05-19T16:31:10;21.40;91.30
48162;DHT22;33950;48.154;16.316;2023-05-19T16:33:56;21.40;91.30
48162;DHT22;33950;48.154;16.316;2023-05-19T16:36:43;21.40;91.50
48162;DHT22;33950;48.154;16.316;2023-05-19T16:39:29;21.40;91.20
48162;DHT22;33950;48.154;16.316;2023-05-19T16:42:16;21.40;91.40
48162;DHT22;33950;48.154;16.316;2023-05-19T16:45:02;21.30;91.40
48162;DHT22;33950;48.154;16.316;2023-05-19T16:47:49;21.20;91.60
48162;DHT22;33950;48.154;16.316;2023-05-19T16:50:35;21.00;91.70
48162;DHT22;33950;48.154;16.316;2023-05-19T16:53:22;21.00;91.80
48162;DHT22;33950;48.154;16.316;2023-05-19T16:56:08;20.90;91.70
48162;DHT22;33950;48.154;16.316;2023-05-19T16:58:54;20.80;91.80
48162;DHT22;33950;48.154;16.316;2023-05-19T17:01:41;20.70;92.10
48162;DHT22;33950;48.154;16.316;2023-05-19T17:04:27;20.70;92.20
48162;DHT22;33950;48.154;16.316;2023-05-19T17:07:13;20.60;92.40
48162;DHT22;33950;48.154;16.316;2023-05-19T17:10:04;20.60;92.50
48162;DHT22;33950;48.154;16.316;2023-05-19T17:12:50;20.50;92.60
48162;DHT22;33950;48.154;16.316;2023-05-19T17:15:36;20.50;92.70
48162;DHT22;33950;48.154;16.316;2023-05-19T17:18:23;20.40;92.70
48162;DHT22;33950;48.154;16.316;2023-05-19T17:21:09;20.40;92.80
48162;DHT22;33950;48.154;16.316;2023-05-19T17:23:55;20.50;92.90
48162;DHT22;33950;48.154;16.316;2023-05-19T17:26:43;20.40;92.90
48162;DHT22;33950;48.154;16.316;2023-05-19T17:29:29;20.50;93.00
48162;DHT22;33950;48.154;16.316;2023-05-19T17:32:15;20.50;93.00